sensor_id;sensor_type;location;lat;lon;timestamp;P1;durP1;ratioP1;P2;durP2;ratioP2
75768;SDS011;64379;48.888;8.330;2023-04-16T00:00:41;26.00;;;13.68;;
75768;SDS011;64379;48.888;8.330;2023-04-16T00:03:06;28.05;;;14.25;;
75768;SDS011;64379;48.888;8.330;2023-04-16T00:05:32;27.65;;;14.05;;
75768;SDS011;64379;48.888;8.330;2023-04-16T00:07:57;25.95;;;14.02;;
75768;SDS011;64379;48.888;8.330;2023-04-16T00:10:23;25.67;;;13.27;;
75768;SDS011;64379;48.888;8.330;2023-04-16T00:12:49;29.65;;;14.50;;
75768;SDS011;64379;48.888;8.330;2023-04-16T00:15:14;27.17;;;13.98;;
75768;SDS011;64379;48.888;8.330;2023-04-16T00:17:40;26.45;;;13.45;;
75768;SDS011;64379;48.888;8.330;2023-04-16T00:20:06;23.90;;;13.35;;
75768;SDS011;64379;48.888;8.330;2023-04-16T00:22:32;25.02;;;13.00;;
75768;SDS011;64379;48.888;8.330;2023-04-16T00:24:58;27.48;;;13.88;;
75768;SDS011;64379;48.888;8.330;2023-04-16T00:27:24;26.67;;;13.60;;
75768;SDS011;64379;48.888;8.330;2023-04-16T00:29:49;31.77;;;16.30;;
75768;SDS011;64379;48.888;8.330;2023-04-16T00:32:15;27.38;;;14.65;;
75768;SDS011;64379;48.888;8.330;2023-04-16T00:34:41;28.95;;;14.52;;
75768;SDS011;64379;48.888;8.330;2023-04-16T00:37:06;27.23;;;14.57;;
75768;SDS011;64379;48.888;8.330;2023-04-16T00:39:32;27.40;;;14.48;;
75768;SDS011;64379;48.888;8.330;2023-04-16T00:41:58;25.30;;;13.38;;
75768;SDS011;64379;48.888;8.330;2023-04-16T00:44:23;27.27;;;14.43;;
75768;SDS011;64379;48.888;8.330;2023-04-16T00:46:49;27.60;;;14.68;;
75768;SDS011;64379;48.888;8.330;2023-04-16T00:49:15;27.00;;;13.82;;
75768;SDS011;64379;48.888;8.330;2023-04-16T00:51:41;27.30;;;15.02;;
75768;SDS011;64379;48.888;8.330;2023-04-16T00:54:07;29.73;;;15.30;;
75768;SDS011;64379;48.888;8.330;2023-04-16T00:56:33;27.38;;;14.20;;
75768;SDS011;64379;48.888;8.330;2023-04-16T00:59:00;30.20;;;15.25;;
75768;SDS011;64379;48.888;8.330;2023-04-16T01:01:25;29.80;;;15.10;;
75768;SDS011;64379;48.888;8.330;2023-04-16T01:03:51;30.05;;;15.45;;
75768;SDS011;64379;48.888;8.330;2023-04-16T01:06:17;31.42;;;15.85;;
75768;SDS011;64379;48.888;8.330;2023-04-16T01:08:43;29.38;;;14.35;;
75768;SDS011;64379;48.888;8.330;2023-04-16T01:11:09;29.52;;;13.68;;
75768;SDS011;64379;48.888;8.330;2023-04-16T01:13:36;31.92;;;15.52;;
75768;SDS011;64379;48.888;8.330;2023-04-16T01:16:04;30.90;;;15.20;;
75768;SDS011;64379;48.888;8.330;2023-04-16T01:18:31;31.77;;;15.73;;
75768;SDS011;64379;48.888;8.330;2023-04-16T01:20:57;31.00;;;15.00;;
75768;SDS011;64379;48.888;8.330;2023-04-16T01:23:22;29.38;;;14.75;;
75768;SDS011;64379;48.888;8.330;2023-04-16T01:25:48;32.22;;;15.30;;
75768;SDS011;64379;48.888;8.330;2023-04-16T01:28:14;33.25;;;15.77;;
75768;SDS011;64379;48.888;8.330;2023-04-16T01:30:39;29.60;;;14.63;;
75768;SDS011;64379;48.888;8.330;2023-04-16T01:33:05;34.63;;;15.93;;
75768;SDS011;64379;48.888;8.330;2023-04-16T01:35:33;31.80;;;15.68;;
75768;SDS011;64379;48.888;8.330;2023-04-16T01:37:58;32.05;;;15.20;;
75768;SDS011;64379;48.888;8.330;2023-04-16T01:40:24;32.05;;;15.50;;
75768;SDS011;64379;48.888;8.330;2023-04-16T01:42:49;33.00;;;16.10;;
75768;SDS011;64379;48.888;8.330;2023-04-16T01:45:15;33.83;;;16.80;;
75768;SDS011;64379;48.888;8.330;2023-04-16T01:47:41;31.33;;;15.25;;
75768;SDS011;64379;48.888;8.330;2023-04-16T01:50:07;30.90;;;15.57;;
75768;SDS011;64379;48.888;8.330;2023-04-16T01:52:33;31.40;;;15.45;;
75768;SDS011;64379;48.888;8.330;2023-04-16T01:54:59;30.88;;;14.88;;
75768;SDS011;64379;48.888;8.330;2023-04-16T01:57:25;31.73;;;15.35;;
75768;SDS011;64379;48.888;8.330;2023-04-16T01:59:50;32.28;;;14.38;;
75768;SDS011;64379;48.888;8.330;2023-04-16T02:02:16;34.05;;;16.02;;
75768;SDS011;64379;48.888;8.330;2023-04-16T02:04:42;32.20;;;16.00;;
75768;SDS011;64379;48.888;8.330;2023-04-16T02:07:09;32.63;;;15.57;;
75768;SDS011;64379;48.888;8.330;2023-04-16T02:09:39;31.35;;;15.63;;
75768;SDS011;64379;48.888;8.330;2023-04-16T02:12:05;30.60;;;14.82;;
75768;SDS011;64379;48.888;8.330;2023-04-16T02:14:31;33.17;;;15.85;;
75768;SDS011;64379;48.888;8.330;2023-04-16T02:16:57;33.33;;;16.13;;
75768;SDS011;64379;48.888;8.330;2023-04-16T02:19:24;30.70;;;15.82;;
75768;SDS011;64379;48.888;8.330;2023-04-16T02:21:50;35.03;;;15.77;;
75768;SDS011;64379;48.888;8.330;2023-04-16T02:24:16;28.95;;;14.70;;
75768;SDS011;64379;48.888;8.330;2023-04-16T02:26:42;39.00;;;16.75;;
75768;SDS011;64379;48.888;8.330;2023-04-16T02:29:08;34.15;;;16.42;;
75768;SDS011;64379;48.888;8.330;2023-04-16T02:31:34;32.88;;;16.60;;
75768;SDS011;64379;48.888;8.330;2023-04-16T02:33:59;33.60;;;17.02;;
75768;SDS011;64379;48.888;8.330;2023-04-16T02:36:25;36.75;;;15.50;;
75768;SDS011;64379;48.888;8.330;2023-04-16T02:38:51;34.80;;;16.35;;
75768;SDS011;64379;48.888;8.330;2023-04-16T02:41:17;32.75;;;15.30;;
75768;SDS011;64379;48.888;8.330;2023-04-16T02:43:42;30.63;;;13.77;;
75768;SDS011;64379;48.888;8.330;2023-04-16T02:46:08;34.00;;;16.85;;
75768;SDS011;64379;48.888;8.330;2023-04-16T02:48:33;33.83;;;16.10;;
75768;SDS011;64379;48.888;8.330;2023-04-16T02:50:59;34.58;;;17.05;;
75768;SDS011;64379;48.888;8.330;2023-04-16T02:53:25;36.08;;;16.48;;
75768;SDS011;64379;48.888;8.330;2023-04-16T02:55:51;32.72;;;16.27;;
75768;SDS011;64379;48.888;8.330;2023-04-16T02:58:21;34.17;;;16.92;;
75768;SDS011;64379;48.888;8.330;2023-04-16T03:00:49;33.53;;;16.00;;
75768;SDS011;64379;48.888;8.330;2023-04-16T03:03:15;31.55;;;15.55;;
75768;SDS011;64379;48.888;8.330;2023-04-16T03:05:41;32.53;;;15.73;;
75768;SDS011;64379;48.888;8.330;2023-04-16T03:08:06;33.17;;;16.40;;
75768;SDS011;64379;48.888;8.330;2023-04-16T03:10:32;34.58;;;15.95;;
75768;SDS011;64379;48.888;8.330;2023-04-16T03:12:59;33.30;;;15.32;;
75768;SDS011;64379;48.888;8.330;2023-04-16T03:15:24;34.13;;;16.52;;
75768;SDS011;64379;48.888;8.330;2023-04-16T03:17:51;31.35;;;15.30;;
75768;SDS011;64379;48.888;8.330;2023-04-16T03:20:17;31.70;;;15.93;;
75768;SDS011;64379;48.888;8.330;2023-04-16T03:22:44;35.20;;;17.50;;
75768;SDS011;64379;48.888;8.330;2023-04-16T03:25:10;35.75;;;16.50;;
75768;SDS011;64379;48.888;8.330;2023-04-16T03:27:36;31.13;;;15.70;;
75768;SDS011;64379;48.888;8.330;2023-04-16T03:30:03;35.00;;;15.65;;
75768;SDS011;64379;48.888;8.330;2023-04-16T03:32:34;32.67;;;16.67;;
75768;SDS011;64379;48.888;8.330;2023-04-16T03:35:01;33.10;;;16.23;;
75768;SDS011;64379;48.888;8.330;2023-04-16T03:37:31;32.45;;;15.32;;
75768;SDS011;64379;48.888;8.330;2023-04-16T03:39:57;34.15;;;16.73;;
75768;SDS011;64379;48.888;8.330;2023-04-16T03:42:22;32.63;;;15.32;;
75768;SDS011;64379;48.888;8.330;2023-04-16T03:44:48;33.95;;;14.55;;
75768;SDS011;64379;48.888;8.330;2023-04-16T03:47:14;31.80;;;16.13;;
75768;SDS011;64379;48.888;8.330;2023-04-16T03:49:40;29.80;;;15.05;;
75768;SDS011;64379;48.888;8.330;2023-04-16T03:52:05;32.45;;;15.65;;
75768;SDS011;64379;48.888;8.330;2023-04-16T03:54:31;30.20;;;14.77;;
75768;SDS011;64379;48.888;8.330;2023-04-16T03:56:56;31.45;;;15.50;;
75768;SDS011;64379;48.888;8.330;2023-04-16T03:59:22;29.25;;;14.93;;
75768;SDS011;64379;48.888;8.330;2023-04-16T04:01:48;32.15;;;16.17;;
75768;SDS011;64379;48.888;8.330;2023-04-16T04:04:13;28.73;;;15.27;;
75768;SDS011;64379;48.888;8.330;2023-04-16T04:06:39;29.40;;;15.38;;
75768;SDS011;64379;48.888;8.330;2023-04-16T04:09:05;29.10;;;14.45;;
75768;SDS011;64379;48.888;8.330;2023-04-16T04:11:31;29.15;;;14.80;;
75768;SDS011;64379;48.888;8.330;2023-04-16T04:13:56;27.88;;;14.93;;
75768;SDS011;64379;48.888;8.330;2023-04-16T04:16:22;28.75;;;14.48;;
75768;SDS011;64379;48.888;8.330;2023-04-16T04:18:47;27.70;;;14.30;;
75768;SDS011;64379;48.888;8.330;2023-04-16T04:21:13;26.67;;;14.70;;
75768;SDS011;64379;48.888;8.330;2023-04-16T04:23:39;29.10;;;15.10;;
75768;SDS011;64379;48.888;8.330;2023-04-16T04:26:06;28.77;;;15.07;;
75768;SDS011;64379;48.888;8.330;2023-04-16T04:28:32;29.67;;;15.60;;
75768;SDS011;64379;48.888;8.330;2023-04-16T04:30:58;28.90;;;14.43;;
75768;SDS011;64379;48.888;8.330;2023-04-16T04:33:25;29.80;;;14.75;;
75768;SDS011;64379;48.888;8.330;2023-04-16T04:35:51;29.63;;;14.93;;
75768;SDS011;64379;48.888;8.330;2023-04-16T04:38:17;28.38;;;14.40;;
75768;SDS011;64379;48.888;8.330;2023-04-16T04:40:46;27.55;;;14.15;;
75768;SDS011;64379;48.888;8.330;2023-04-16T04:43:12;30.00;;;15.32;;
75768;SDS011;64379;48.888;8.330;2023-04-16T04:45:37;29.48;;;15.15;;
75768;SDS011;64379;48.888;8.330;2023-04-16T04:48:03;29.67;;;14.40;;
75768;SDS011;64379;48.888;8.330;2023-04-16T04:50:29;28.30;;;14.02;;
75768;SDS011;64379;48.888;8.330;2023-04-16T04:52:54;27.02;;;14.65;;
75768;SDS011;64379;48.888;8.330;2023-04-16T04:55:20;26.95;;;13.60;;
75768;SDS011;64379;48.888;8.330;2023-04-16T04:57:46;25.77;;;13.57;;
75768;SDS011;64379;48.888;8.330;2023-04-16T05:00:12;27.77;;;14.30;;
75768;SDS011;64379;48.888;8.330;2023-04-16T05:02:38;26.60;;;13.20;;
75768;SDS011;64379;48.888;8.330;2023-04-16T05:05:04;27.95;;;14.27;;
75768;SDS011;64379;48.888;8.330;2023-04-16T05:07:30;30.98;;;14.82;;
75768;SDS011;64379;48.888;8.330;2023-04-16T05:09:55;27.83;;;13.82;;
75768;SDS011;64379;48.888;8.330;2023-04-16T05:12:21;28.65;;;14.63;;
75768;SDS011;64379;48.888;8.330;2023-04-16T05:14:47;28.30;;;13.82;;
75768;SDS011;64379;48.888;8.330;2023-04-16T05:17:12;25.50;;;14.00;;
75768;SDS011;64379;48.888;8.330;2023-04-16T05:19:38;27.00;;;14.00;;
75768;SDS011;64379;48.888;8.330;2023-04-16T05:22:03;27.70;;;14.30;;
75768;SDS011;64379;48.888;8.330;2023-04-16T05:24:29;28.02;;;13.30;;
75768;SDS011;64379;48.888;8.330;2023-04-16T05:26:55;27.05;;;13.90;;
75768;SDS011;64379;48.888;8.330;2023-04-16T05:29:21;24.40;;;13.10;;
75768;SDS011;64379;48.888;8.330;2023-04-16T05:31:46;24.27;;;13.40;;
75768;SDS011;64379;48.888;8.330;2023-04-16T05:34:12;25.13;;;13.55;;
75768;SDS011;64379;48.888;8.330;2023-04-16T05:36:38;23.77;;;13.00;;
75768;SDS011;64379;48.888;8.330;2023-04-16T05:39:03;22.15;;;12.20;;
75768;SDS011;64379;48.888;8.330;2023-04-16T05:41:33;23.30;;;12.38;;
75768;SDS011;64379;48.888;8.330;2023-04-16T05:43:58;23.83;;;12.48;;
75768;SDS011;64379;48.888;8.330;2023-04-16T05:46:24;24.42;;;12.38;;
75768;SDS011;64379;48.888;8.330;2023-04-16T05:48:50;22.58;;;12.82;;
75768;SDS011;64379;48.888;8.330;2023-04-16T05:51:16;23.15;;;12.63;;
75768;SDS011;64379;48.888;8.330;2023-04-16T05:53:41;22.55;;;11.90;;
75768;SDS011;64379;48.888;8.330;2023-04-16T05:56:13;21.23;;;11.90;;
75768;SDS011;64379;48.888;8.330;2023-04-16T05:58:38;23.55;;;12.90;;
75768;SDS011;64379;48.888;8.330;2023-04-16T06:01:04;23.58;;;12.40;;
75768;SDS011;64379;48.888;8.330;2023-04-16T06:03:31;24.70;;;12.68;;
75768;SDS011;64379;48.888;8.330;2023-04-16T06:05:57;24.38;;;12.27;;
75768;SDS011;64379;48.888;8.330;2023-04-16T06:08:22;22.33;;;12.10;;
75768;SDS011;64379;48.888;8.330;2023-04-16T06:10:48;22.23;;;12.20;;
75768;SDS011;64379;48.888;8.330;2023-04-16T06:13:13;25.27;;;12.63;;
75768;SDS011;64379;48.888;8.330;2023-04-16T06:15:39;21.02;;;10.88;;
75768;SDS011;64379;48.888;8.330;2023-04-16T06:18:05;21.23;;;10.65;;
75768;SDS011;64379;48.888;8.330;2023-04-16T06:20:30;19.77;;;10.63;;
75768;SDS011;64379;48.888;8.330;2023-04-16T06:22:56;20.08;;;10.70;;
75768;SDS011;64379;48.888;8.330;2023-04-16T06:25:22;20.48;;;11.15;;
75768;SDS011;64379;48.888;8.330;2023-04-16T06:27:47;21.38;;;10.82;;
75768;SDS011;64379;48.888;8.330;2023-04-16T06:30:13;20.70;;;11.07;;
75768;SDS011;64379;48.888;8.330;2023-04-16T06:32:40;20.15;;;10.82;;
75768;SDS011;64379;48.888;8.330;2023-04-16T06:35:07;21.55;;;11.00;;
75768;SDS011;64379;48.888;8.330;2023-04-16T06:37:33;20.55;;;10.70;;
75768;SDS011;64379;48.888;8.330;2023-04-16T06:39:59;19.15;;;10.07;;
75768;SDS011;64379;48.888;8.330;2023-04-16T06:42:25;19.67;;;9.88;;
75768;SDS011;64379;48.888;8.330;2023-04-16T06:44:50;18.27;;;9.15;;
75768;SDS011;64379;48.888;8.330;2023-04-16T06:47:16;16.65;;;8.50;;
75768;SDS011;64379;48.888;8.330;2023-04-16T06:49:41;17.75;;;8.55;;
75768;SDS011;64379;48.888;8.330;2023-04-16T06:52:07;17.15;;;8.48;;
75768;SDS011;64379;48.888;8.330;2023-04-16T06:54:33;17.20;;;8.35;;
75768;SDS011;64379;48.888;8.330;2023-04-16T06:56:58;17.02;;;8.73;;
75768;SDS011;64379;48.888;8.330;2023-04-16T06:59:24;15.68;;;8.13;;
75768;SDS011;64379;48.888;8.330;2023-04-16T07:01:50;17.77;;;8.48;;
75768;SDS011;64379;48.888;8.330;2023-04-16T07:04:16;15.25;;;7.80;;
75768;SDS011;64379;48.888;8.330;2023-04-16T07:06:42;17.08;;;8.38;;
75768;SDS011;64379;48.888;8.330;2023-04-16T07:09:07;19.65;;;8.77;;
75768;SDS011;64379;48.888;8.330;2023-04-16T07:11:33;15.43;;;8.18;;
75768;SDS011;64379;48.888;8.330;2023-04-16T07:13:59;14.93;;;7.68;;
75768;SDS011;64379;48.888;8.330;2023-04-16T07:16:25;15.82;;;7.45;;
75768;SDS011;64379;48.888;8.330;2023-04-16T07:18:51;17.30;;;8.52;;
75768;SDS011;64379;48.888;8.330;2023-04-16T07:21:16;16.77;;;8.30;;
75768;SDS011;64379;48.888;8.330;2023-04-16T07:23:42;17.45;;;8.20;;
75768;SDS011;64379;48.888;8.330;2023-04-16T07:26:07;16.35;;;7.13;;
75768;SDS011;64379;48.888;8.330;2023-04-16T07:28:33;16.20;;;7.65;;
75768;SDS011;64379;48.888;8.330;2023-04-16T07:30:59;17.23;;;7.88;;
75768;SDS011;64379;48.888;8.330;2023-04-16T07:33:24;17.65;;;8.60;;
75768;SDS011;64379;48.888;8.330;2023-04-16T07:35:50;16.45;;;7.90;;
75768;SDS011;64379;48.888;8.330;2023-04-16T07:38:16;15.75;;;8.02;;
75768;SDS011;64379;48.888;8.330;2023-04-16T07:40:41;17.98;;;8.27;;
75768;SDS011;64379;48.888;8.330;2023-04-16T07:43:07;15.80;;;8.25;;
75768;SDS011;64379;48.888;8.330;2023-04-16T07:45:33;20.25;;;8.30;;
75768;SDS011;64379;48.888;8.330;2023-04-16T07:47:59;16.73;;;8.52;;
75768;SDS011;64379;48.888;8.330;2023-04-16T07:50:25;16.33;;;8.38;;
75768;SDS011;64379;48.888;8.330;2023-04-16T07:52:50;16.48;;;8.00;;
75768;SDS011;64379;48.888;8.330;2023-04-16T07:55:16;18.65;;;8.15;;
75768;SDS011;64379;48.888;8.330;2023-04-16T07:57:41;19.05;;;8.45;;
75768;SDS011;64379;48.888;8.330;2023-04-16T08:00:07;18.88;;;8.40;;
75768;SDS011;64379;48.888;8.330;2023-04-16T08:02:34;15.20;;;7.80;;
75768;SDS011;64379;48.888;8.330;2023-04-16T08:05:00;16.65;;;8.18;;
75768;SDS011;64379;48.888;8.330;2023-04-16T08:07:25;16.98;;;8.40;;
75768;SDS011;64379;48.888;8.330;2023-04-16T08:09:51;17.30;;;8.05;;
75768;SDS011;64379;48.888;8.330;2023-04-16T08:12:17;15.63;;;7.55;;
75768;SDS011;64379;48.888;8.330;2023-04-16T08:14:43;16.63;;;8.45;;
75768;SDS011;64379;48.888;8.330;2023-04-16T08:17:13;18.13;;;8.48;;
75768;SDS011;64379;48.888;8.330;2023-04-16T08:19:39;16.35;;;8.25;;
75768;SDS011;64379;48.888;8.330;2023-04-16T08:22:05;17.63;;;8.20;;
75768;SDS011;64379;48.888;8.330;2023-04-16T08:24:31;18.02;;;8.65;;
75768;SDS011;64379;48.888;8.330;2023-04-16T08:26:56;17.27;;;8.35;;
75768;SDS011;64379;48.888;8.330;2023-04-16T08:29:22;19.38;;;8.27;;
75768;SDS011;64379;48.888;8.330;2023-04-16T08:31:51;16.33;;;7.25;;
75768;SDS011;64379;48.888;8.330;2023-04-16T08:34:17;18.92;;;7.57;;
75768;SDS011;64379;48.888;8.330;2023-04-16T08:36:43;17.63;;;8.32;;
75768;SDS011;64379;48.888;8.330;2023-04-16T08:39:10;16.23;;;7.63;;
75768;SDS011;64379;48.888;8.330;2023-04-16T08:41:35;18.52;;;9.10;;
75768;SDS011;64379;48.888;8.330;2023-04-16T08:44:06;16.45;;;7.78;;
75768;SDS011;64379;48.888;8.330;2023-04-16T08:46:34;15.75;;;7.78;;
75768;SDS011;64379;48.888;8.330;2023-04-16T08:49:01;17.42;;;7.53;;
75768;SDS011;64379;48.888;8.330;2023-04-16T08:51:33;16.55;;;8.18;;
75768;SDS011;64379;48.888;8.330;2023-04-16T08:56:29;19.60;;;8.60;;
75768;SDS011;64379;48.888;8.330;2023-04-16T08:58:55;17.38;;;8.18;;
75768;SDS011;64379;48.888;8.330;2023-04-16T09:01:22;17.63;;;7.68;;
75768;SDS011;64379;48.888;8.330;2023-04-16T09:03:50;13.45;;;6.70;;
75768;SDS011;64379;48.888;8.330;2023-04-16T09:06:17;14.50;;;7.28;;
75768;SDS011;64379;48.888;8.330;2023-04-16T09:08:44;16.25;;;7.68;;
75768;SDS011;64379;48.888;8.330;2023-04-16T09:11:11;16.80;;;8.27;;
75768;SDS011;64379;48.888;8.330;2023-04-16T09:13:38;15.63;;;7.10;;
75768;SDS011;64379;48.888;8.330;2023-04-16T09:16:05;16.90;;;7.95;;
75768;SDS011;64379;48.888;8.330;2023-04-16T09:18:32;17.02;;;7.88;;
75768;SDS011;64379;48.888;8.330;2023-04-16T09:20:57;14.57;;;6.78;;
75768;SDS011;64379;48.888;8.330;2023-04-16T09:23:23;13.95;;;6.97;;
75768;SDS011;64379;48.888;8.330;2023-04-16T09:25:49;17.02;;;7.60;;
75768;SDS011;64379;48.888;8.330;2023-04-16T09:31:10;14.07;;;6.50;;
75768;SDS011;64379;48.888;8.330;2023-04-16T09:33:37;15.52;;;7.60;;
75768;SDS011;64379;48.888;8.330;2023-04-16T09:36:02;14.57;;;6.55;;
75768;SDS011;64379;48.888;8.330;2023-04-16T09:38:49;12.20;;;5.55;;
75768;SDS011;64379;48.888;8.330;2023-04-16T09:41:16;11.60;;;6.05;;
75768;SDS011;64379;48.888;8.330;2023-04-16T09:44:15;12.77;;;6.63;;
75768;SDS011;64379;48.888;8.330;2023-04-16T09:46:35;14.63;;;6.47;;
75768;SDS011;64379;48.888;8.330;2023-04-16T09:49:07;13.75;;;6.70;;
75768;SDS011;64379;48.888;8.330;2023-04-16T09:51:39;12.35;;;6.15;;
75768;SDS011;64379;48.888;8.330;2023-04-16T09:54:05;15.43;;;7.40;;
75768;SDS011;64379;48.888;8.330;2023-04-16T09:56:31;15.02;;;7.00;;
75768;SDS011;64379;48.888;8.330;2023-04-16T09:59:01;14.52;;;7.00;;
75768;SDS011;64379;48.888;8.330;2023-04-16T10:01:26;15.85;;;7.85;;
75768;SDS011;64379;48.888;8.330;2023-04-16T10:03:54;16.55;;;7.30;;
75768;SDS011;64379;48.888;8.330;2023-04-16T10:06:21;14.93;;;7.60;;
75768;SDS011;64379;48.888;8.330;2023-04-16T10:08:50;15.38;;;7.28;;
75768;SDS011;64379;48.888;8.330;2023-04-16T10:11:18;17.27;;;8.57;;
75768;SDS011;64379;48.888;8.330;2023-04-16T10:13:45;16.67;;;7.90;;
75768;SDS011;64379;48.888;8.330;2023-04-16T10:16:11;18.83;;;9.27;;
75768;SDS011;64379;48.888;8.330;2023-04-16T10:18:38;14.23;;;7.80;;
75768;SDS011;64379;48.888;8.330;2023-04-16T10:21:05;12.48;;;6.05;;
75768;SDS011;64379;48.888;8.330;2023-04-16T10:23:32;11.35;;;5.63;;
75768;SDS011;64379;48.888;8.330;2023-04-16T10:25:59;14.35;;;6.10;;
75768;SDS011;64379;48.888;8.330;2023-04-16T10:28:26;12.88;;;5.80;;
75768;SDS011;64379;48.888;8.330;2023-04-16T10:30:53;11.73;;;5.63;;
75768;SDS011;64379;48.888;8.330;2023-04-16T10:33:21;12.75;;;5.72;;
75768;SDS011;64379;48.888;8.330;2023-04-16T10:35:49;13.50;;;6.80;;
75768;SDS011;64379;48.888;8.330;2023-04-16T10:41:12;14.63;;;7.93;;
75768;SDS011;64379;48.888;8.330;2023-04-16T10:43:41;13.45;;;7.47;;
75768;SDS011;64379;48.888;8.330;2023-04-16T10:49:01;15.70;;;7.65;;
75768;SDS011;64379;48.888;8.330;2023-04-16T10:51:35;16.30;;;7.45;;
75768;SDS011;64379;48.888;8.330;2023-04-16T10:54:18;14.40;;;7.22;;
75768;SDS011;64379;48.888;8.330;2023-04-16T10:57:02;16.00;;;6.47;;
75768;SDS011;64379;48.888;8.330;2023-04-16T10:59:34;13.15;;;6.20;;
75768;SDS011;64379;48.888;8.330;2023-04-16T11:02:05;10.55;;;5.72;;
75768;SDS011;64379;48.888;8.330;2023-04-16T11:04:33;12.43;;;6.05;;
75768;SDS011;64379;48.888;8.330;2023-04-16T11:07:01;13.95;;;6.07;;
75768;SDS011;64379;48.888;8.330;2023-04-16T11:15:15;11.50;;;5.30;;
75768;SDS011;64379;48.888;8.330;2023-04-16T11:17:47;12.35;;;5.70;;
75768;SDS011;64379;48.888;8.330;2023-04-16T11:22:48;12.02;;;5.50;;
75768;SDS011;64379;48.888;8.330;2023-04-16T11:25:22;11.55;;;5.30;;
75768;SDS011;64379;48.888;8.330;2023-04-16T11:27:49;11.55;;;5.43;;
75768;SDS011;64379;48.888;8.330;2023-04-16T11:30:15;13.10;;;5.13;;
75768;SDS011;64379;48.888;8.330;2023-04-16T11:32:42;10.00;;;5.00;;
75768;SDS011;64379;48.888;8.330;2023-04-16T11:35:15;11.50;;;5.00;;
75768;SDS011;64379;48.888;8.330;2023-04-16T11:37:42;10.02;;;4.75;;
75768;SDS011;64379;48.888;8.330;2023-04-16T11:40:09;10.75;;;5.40;;
75768;SDS011;64379;48.888;8.330;2023-04-16T11:42:35;10.65;;;4.60;;
75768;SDS011;64379;48.888;8.330;2023-04-16T11:45:02;12.40;;;5.60;;
75768;SDS011;64379;48.888;8.330;2023-04-16T11:47:29;12.25;;;5.82;;
75768;SDS011;64379;48.888;8.330;2023-04-16T11:49:55;12.35;;;5.43;;
75768;SDS011;64379;48.888;8.330;2023-04-16T11:52:28;10.85;;;5.32;;
75768;SDS011;64379;48.888;8.330;2023-04-16T11:54:55;10.45;;;5.20;;
75768;SDS011;64379;48.888;8.330;2023-04-16T11:57:26;10.38;;;4.88;;
75768;SDS011;64379;48.888;8.330;2023-04-16T11:59:53;11.25;;;5.25;;
75768;SDS011;64379;48.888;8.330;2023-04-16T12:08:00;11.50;;;5.57;;
75768;SDS011;64379;48.888;8.330;2023-04-16T12:10:27;15.00;;;6.25;;
75768;SDS011;64379;48.888;8.330;2023-04-16T12:13:09;11.32;;;5.45;;
75768;SDS011;64379;48.888;8.330;2023-04-16T12:18:13;11.93;;;5.70;;
75768;SDS011;64379;48.888;8.330;2023-04-16T12:20:40;10.70;;;5.60;;
75768;SDS011;64379;48.888;8.330;2023-04-16T12:23:07;11.13;;;5.75;;
75768;SDS011;64379;48.888;8.330;2023-04-16T12:25:33;11.68;;;5.75;;
75768;SDS011;64379;48.888;8.330;2023-04-16T12:27:59;10.60;;;5.25;;
75768;SDS011;64379;48.888;8.330;2023-04-16T12:30:26;11.48;;;5.50;;
75768;SDS011;64379;48.888;8.330;2023-04-16T12:33:13;10.52;;;5.30;;
75768;SDS011;64379;48.888;8.330;2023-04-16T12:35:40;13.93;;;6.32;;
75768;SDS011;64379;48.888;8.330;2023-04-16T12:38:07;12.18;;;5.45;;
75768;SDS011;64379;48.888;8.330;2023-04-16T12:40:33;11.18;;;5.40;;
75768;SDS011;64379;48.888;8.330;2023-04-16T12:43:00;11.52;;;5.60;;
75768;SDS011;64379;48.888;8.330;2023-04-16T12:45:26;12.35;;;5.97;;
75768;SDS011;64379;48.888;8.330;2023-04-16T12:47:52;11.70;;;5.38;;
75768;SDS011;64379;48.888;8.330;2023-04-16T12:50:18;9.38;;;4.72;;
75768;SDS011;64379;48.888;8.330;2023-04-16T12:52:43;10.15;;;5.00;;
75768;SDS011;64379;48.888;8.330;2023-04-16T12:55:09;9.65;;;5.13;;
75768;SDS011;64379;48.888;8.330;2023-04-16T12:57:35;11.95;;;5.10;;
75768;SDS011;64379;48.888;8.330;2023-04-16T13:00:01;15.13;;;5.40;;
75768;SDS011;64379;48.888;8.330;2023-04-16T13:04:56;10.15;;;4.78;;
75768;SDS011;64379;48.888;8.330;2023-04-16T13:07:22;10.88;;;5.07;;
75768;SDS011;64379;48.888;8.330;2023-04-16T13:09:48;9.43;;;4.93;;
75768;SDS011;64379;48.888;8.330;2023-04-16T13:12:14;9.82;;;5.00;;
75768;SDS011;64379;48.888;8.330;2023-04-16T13:14:40;9.48;;;4.68;;
75768;SDS011;64379;48.888;8.330;2023-04-16T13:17:06;9.48;;;4.90;;
75768;SDS011;64379;48.888;8.330;2023-04-16T13:19:31;9.98;;;5.10;;
75768;SDS011;64379;48.888;8.330;2023-04-16T13:21:57;11.80;;;5.10;;
75768;SDS011;64379;48.888;8.330;2023-04-16T13:24:23;9.88;;;4.35;;
75768;SDS011;64379;48.888;8.330;2023-04-16T13:26:49;10.60;;;4.95;;
75768;SDS011;64379;48.888;8.330;2023-04-16T13:29:16;12.75;;;5.30;;
75768;SDS011;64379;48.888;8.330;2023-04-16T13:31:42;12.27;;;5.53;;
75768;SDS011;64379;48.888;8.330;2023-04-16T13:34:07;11.07;;;5.13;;
75768;SDS011;64379;48.888;8.330;2023-04-16T13:36:33;11.95;;;5.43;;
75768;SDS011;64379;48.888;8.330;2023-04-16T13:38:59;10.45;;;4.80;;
75768;SDS011;64379;48.888;8.330;2023-04-16T13:41:25;12.77;;;5.68;;
75768;SDS011;64379;48.888;8.330;2023-04-16T13:43:50;13.93;;;6.57;;
75768;SDS011;64379;48.888;8.330;2023-04-16T13:46:16;14.68;;;5.70;;
75768;SDS011;64379;48.888;8.330;2023-04-16T13:48:42;14.27;;;5.90;;
75768;SDS011;64379;48.888;8.330;2023-04-16T13:51:08;14.10;;;5.93;;
75768;SDS011;64379;48.888;8.330;2023-04-16T13:53:34;14.88;;;7.55;;
75768;SDS011;64379;48.888;8.330;2023-04-16T13:56:00;16.95;;;7.63;;
75768;SDS011;64379;48.888;8.330;2023-04-16T13:58:27;13.88;;;5.90;;
75768;SDS011;64379;48.888;8.330;2023-04-16T14:00:53;14.13;;;6.90;;
75768;SDS011;64379;48.888;8.330;2023-04-16T14:03:19;10.75;;;5.43;;
75768;SDS011;64379;48.888;8.330;2023-04-16T14:05:44;11.70;;;5.20;;
75768;SDS011;64379;48.888;8.330;2023-04-16T14:08:10;10.38;;;5.32;;
75768;SDS011;64379;48.888;8.330;2023-04-16T14:10:38;11.02;;;4.65;;
75768;SDS011;64379;48.888;8.330;2023-04-16T14:13:04;11.82;;;5.28;;
75768;SDS011;64379;48.888;8.330;2023-04-16T14:15:30;11.13;;;5.70;;
75768;SDS011;64379;48.888;8.330;2023-04-16T14:17:55;13.27;;;6.22;;
75768;SDS011;64379;48.888;8.330;2023-04-16T14:20:21;14.02;;;6.78;;
75768;SDS011;64379;48.888;8.330;2023-04-16T14:22:47;13.35;;;5.38;;
75768;SDS011;64379;48.888;8.330;2023-04-16T14:25:12;11.60;;;5.72;;
75768;SDS011;64379;48.888;8.330;2023-04-16T14:27:38;13.57;;;6.18;;
75768;SDS011;64379;48.888;8.330;2023-04-16T14:30:05;15.00;;;6.50;;
75768;SDS011;64379;48.888;8.330;2023-04-16T14:32:31;11.30;;;5.90;;
75768;SDS011;64379;48.888;8.330;2023-04-16T14:34:57;10.98;;;5.65;;
75768;SDS011;64379;48.888;8.330;2023-04-16T14:37:22;14.02;;;5.78;;
75768;SDS011;64379;48.888;8.330;2023-04-16T14:39:48;14.32;;;6.57;;
75768;SDS011;64379;48.888;8.330;2023-04-16T14:42:14;11.52;;;5.72;;
75768;SDS011;64379;48.888;8.330;2023-04-16T14:44:40;12.55;;;6.68;;
75768;SDS011;64379;48.888;8.330;2023-04-16T14:47:06;14.32;;;6.10;;
75768;SDS011;64379;48.888;8.330;2023-04-16T14:49:32;11.35;;;5.10;;
75768;SDS011;64379;48.888;8.330;2023-04-16T14:51:59;14.45;;;6.25;;
75768;SDS011;64379;48.888;8.330;2023-04-16T14:54:26;13.95;;;6.03;;